createdAt,value
2023-10-10T00:01:47.058Z,101929.34
2023-10-10T00:04:14.146Z,101933.47
2023-10-10T00:06:41.926Z,101927.50
2023-10-10T00:09:13.187Z,101921.22
2023-10-10T00:11:42.239Z,101935.94
2023-10-10T00:14:19.353Z,101932.31
2023-10-10T00:16:56.381Z,101931.47
2023-10-10T00:19:26.148Z,101931.47
2023-10-10T00:21:53.156Z,101936.25
2023-10-10T00:24:31.875Z,101939.66
2023-10-10T00:27:14.478Z,101938.50
2023-10-10T00:29:45.353Z,101935.50
2023-10-10T00:32:24.327Z,101932.22
2023-10-10T00:34:52.273Z,101931.50
2023-10-10T00:37:27.358Z,101935.25
2023-10-10T00:39:54.332Z,101937.88
2023-10-10T00:42:29.100Z,101932.16
2023-10-10T00:44:56.016Z,101919.69
2023-10-10T00:47:26.485Z,101911.56
2023-10-10T00:49:54.421Z,101930.13
2023-10-10T00:52:22.043Z,101934.88
2023-10-10T00:54:51.228Z,101922.47
2023-10-10T00:57:23.106Z,101934.50
2023-10-10T00:59:56.029Z,101881.25
2023-10-10T01:02:24.197Z,101915.50
2023-10-10T01:04:56.897Z,101942.25
2023-10-10T01:07:26.842Z,101940.59
2023-10-10T01:09:58.098Z,101940.75
2023-10-10T01:12:27.365Z,101941.09
2023-10-10T01:14:56.244Z,101917.81
2023-10-10T01:17:31.211Z,101936.97
2023-10-10T01:20:22.138Z,101927.56
2023-10-10T01:22:50.235Z,101937.31
2023-10-10T01:25:36.141Z,101946.69
2023-10-10T01:28:07.188Z,101920.44
2023-10-10T01:30:52.690Z,101917.09
2023-10-10T01:33:24.896Z,101922.84
2023-10-10T01:35:57.152Z,101920.22
2023-10-10T01:38:57.996Z,101929.47
2023-10-10T01:41:32.877Z,101937.06
2023-10-10T01:44:20.624Z,101928.72
2023-10-10T01:46:48.153Z,101919.72
2023-10-10T01:49:17.136Z,101931.56
2023-10-10T01:51:45.153Z,101929.41
2023-10-10T01:54:35.498Z,101927.81
2023-10-10T01:57:07.788Z,101927.16
2023-10-10T01:59:40.220Z,101923.81
2023-10-10T02:02:11.600Z,101939.34
2023-10-10T02:04:40.985Z,101928.13
2023-10-10T02:07:15.616Z,101916.41
2023-10-10T02:09:44.951Z,101942.44
2023-10-10T02:12:17.277Z,101938.19
2023-10-10T02:14:44.659Z,101933.81
2023-10-10T02:17:30.682Z,101849.78
2023-10-10T02:20:26.776Z,101935.13
2023-10-10T02:23:14.813Z,101933.78
2023-10-10T02:25:47.344Z,101910.81
2023-10-10T02:28:17.372Z,101928.72
2023-10-10T02:30:47.413Z,101938.91
2023-10-10T02:33:21.138Z,101903.50
2023-10-10T02:35:55.919Z,101916.84
2023-10-10T02:38:41.383Z,101927.25
2023-10-10T02:41:36.525Z,101921.69
2023-10-10T02:44:03.529Z,101907.78
2023-10-10T02:46:37.159Z,101925.75
2023-10-10T02:49:31.153Z,101930.41
2023-10-10T02:51:58.585Z,101923.59
2023-10-10T02:54:28.141Z,101927.19
2023-10-10T02:56:59.698Z,101935.97
2023-10-10T02:59:34.381Z,101914.66
2023-10-10T03:02:09.763Z,101935.03
2023-10-10T03:04:55.588Z,101939.03
2023-10-10T03:07:30.498Z,101928.88
2023-10-10T03:10:08.991Z,101943.28
2023-10-10T03:12:39.251Z,101929.38
2023-10-10T03:15:15.618Z,101938.19
2023-10-10T03:18:02.093Z,101918.44
2023-10-10T03:20:32.993Z,101940.09
2023-10-10T03:23:07.198Z,101945.41
2023-10-10T03:25:48.991Z,101944.75
2023-10-10T03:28:21.099Z,101949.59
2023-10-10T03:31:11.906Z,101945.78
2023-10-10T03:33:46.117Z,101946.59
2023-10-10T03:36:15.025Z,101906.75
2023-10-10T03:38:49.509Z,101927.97
2023-10-10T03:41:36.398Z,101938.81
2023-10-10T03:44:21.894Z,101941.19
2023-10-10T03:47:01.209Z,101932.97
2023-10-10T03:49:48.400Z,101934.00
2023-10-10T03:52:34.561Z,101928.47
2023-10-10T03:55:20.484Z,101936.41
2023-10-10T03:58:05.909Z,101927.38
2023-10-10T04:00:51.505Z,101914.63
2023-10-10T04:03:36.955Z,101926.72
2023-10-10T04:06:23.628Z,101930.34
2023-10-10T04:09:09.561Z,101907.16
2023-10-10T04:11:55.154Z,101934.00
2023-10-10T04:14:40.869Z,101926.25
2023-10-10T04:17:26.327Z,101925.69
2023-10-10T04:20:12.156Z,101917.97
2023-10-10T04:22:57.862Z,101912.19
2023-10-10T04:25:43.493Z,101907.22
2023-10-10T04:28:29.534Z,101928.56
2023-10-10T04:31:15.041Z,101919.94
2023-10-10T04:34:00.759Z,101919.81
2023-10-10T04:36:46.276Z,101906.78
2023-10-10T04:39:31.395Z,101889.91
2023-10-10T04:42:16.712Z,101910.22
2023-10-10T04:45:02.151Z,101906.59
2023-10-10T04:47:47.964Z,101920.97
2023-10-10T04:50:33.626Z,101916.56
2023-10-10T04:53:19.319Z,101911.56
2023-10-10T04:56:04.813Z,101910.72
2023-10-10T04:58:50.274Z,101917.16
2023-10-10T05:01:35.728Z,101926.06
2023-10-10T05:04:21.261Z,101918.16
2023-10-10T05:07:06.919Z,101908.25
2023-10-10T05:09:54.344Z,101920.31
2023-10-10T05:12:40.012Z,101910.72
2023-10-10T05:15:26.320Z,101916.00
2023-10-10T05:18:11.940Z,101907.91
2023-10-10T05:20:59.954Z,101920.00
2023-10-10T05:23:36.088Z,101918.16
2023-10-10T05:26:07.125Z,101898.47
2023-10-10T05:28:34.480Z,101913.19
2023-10-10T05:31:04.367Z,101923.63
2023-10-10T05:33:32.163Z,101904.41
2023-10-10T05:36:00.650Z,101933.38
2023-10-10T05:38:27.948Z,101905.94
2023-10-10T05:40:55.672Z,101921.97
2023-10-10T05:43:28.068Z,101905.75
2023-10-10T05:45:55.695Z,101927.06
2023-10-10T05:48:23.437Z,101934.50
2023-10-10T05:50:50.510Z,101932.03
2023-10-10T05:53:18.638Z,101910.59
2023-10-10T05:55:54.692Z,101925.94
2023-10-10T05:58:24.611Z,101912.03
2023-10-10T06:00:51.469Z,101911.91
2023-10-10T06:03:18.856Z,101909.78
2023-10-10T06:05:46.178Z,101917.19
2023-10-10T06:08:16.473Z,101912.91
2023-10-10T06:10:43.536Z,101910.75
2023-10-10T06:13:12.863Z,101905.28
2023-10-10T06:15:40.858Z,101926.63
2023-10-10T06:18:13.943Z,101930.91
2023-10-10T06:20:54.223Z,101933.56
2023-10-10T06:23:27.512Z,101934.41
2023-10-10T06:26:01.835Z,101921.38
2023-10-10T06:28:30.736Z,101930.31
2023-10-10T06:31:01.328Z,101938.72
2023-10-10T06:33:31.097Z,101941.88
2023-10-10T06:36:24.446Z,101929.16
2023-10-10T06:39:06.940Z,101916.09
2023-10-10T06:41:40.453Z,101918.44
2023-10-10T06:44:19.146Z,101924.22
2023-10-10T06:46:50.156Z,101928.69
2023-10-10T06:49:17.317Z,101923.41
2023-10-10T06:51:44.441Z,101923.41
2023-10-10T06:54:28.932Z,101924.28
2023-10-10T06:57:02.347Z,101926.41
2023-10-10T06:59:30.385Z,101911.06
2023-10-10T07:02:14.151Z,101911.72
2023-10-10T07:04:42.136Z,101908.41
2023-10-10T07:07:10.446Z,101922.47
2023-10-10T07:09:43.731Z,101918.16
2023-10-10T07:12:11.811Z,101912.75
2023-10-10T07:14:45.358Z,101921.75
2023-10-10T07:17:13.844Z,101913.41
2023-10-10T07:20:03.006Z,101930.06
2023-10-10T07:22:35.952Z,101929.16
2023-10-10T07:25:18.801Z,101910.41
2023-10-10T07:27:46.198Z,101937.66
2023-10-10T07:30:19.729Z,101917.09
2023-10-10T07:32:50.431Z,101932.31
2023-10-10T07:35:18.975Z,101913.63
2023-10-10T07:37:46.928Z,101924.06
2023-10-10T07:40:17.711Z,101926.03
2023-10-10T07:42:51.880Z,101931.16
2023-10-10T07:45:29.526Z,101910.00
2023-10-10T07:47:59.394Z,101917.13
2023-10-10T07:50:36.204Z,101906.41
2023-10-10T07:53:08.154Z,101902.75
2023-10-10T07:55:54.766Z,101910.06
2023-10-10T07:58:51.299Z,101893.38
2023-10-10T08:01:20.016Z,101911.88
2023-10-10T08:03:48.275Z,101920.28
2023-10-10T08:06:23.897Z,101923.94
2023-10-10T08:09:19.522Z,101929.72
2023-10-10T08:11:47.582Z,101920.00
2023-10-10T08:14:15.057Z,101924.28
2023-10-10T08:16:44.714Z,101912.53
2023-10-10T08:19:16.685Z,101909.91
2023-10-10T08:21:53.098Z,101914.19
2023-10-10T08:24:21.761Z,101908.41
2023-10-10T08:26:52.574Z,101909.56
2023-10-10T08:29:24.032Z,101909.41
2023-10-10T08:31:53.124Z,101898.31
2023-10-10T08:34:29.060Z,101909.09
2023-10-10T08:37:04.339Z,101917.16
2023-10-10T08:39:36.848Z,101908.88
2023-10-10T08:42:12.771Z,101907.25
2023-10-10T08:44:42.521Z,101907.09
2023-10-10T08:47:20.592Z,101900.78
2023-10-10T08:49:49.201Z,101891.69
2023-10-10T08:52:21.427Z,101907.22
2023-10-10T08:54:49.206Z,101874.84
2023-10-10T08:57:25.935Z,101896.97
2023-10-10T08:59:53.989Z,101896.66
2023-10-10T09:02:21.726Z,101915.13
2023-10-10T09:04:52.083Z,101910.66
2023-10-10T09:07:24.750Z,101914.47
2023-10-10T09:10:07.793Z,101905.31
2023-10-10T09:12:49.426Z,101914.91
2023-10-10T09:15:18.450Z,101904.44
2023-10-10T09:17:47.083Z,101908.91
2023-10-10T09:20:24.925Z,101909.81
2023-10-10T09:23:18.558Z,101904.28
2023-10-10T09:25:50.108Z,101908.06
2023-10-10T09:28:20.145Z,101896.97
2023-10-10T09:31:11.237Z,101899.03
2023-10-10T09:33:44.013Z,101893.94
2023-10-10T09:36:11.166Z,101885.97
2023-10-10T09:38:45.326Z,101891.09
2023-10-10T09:41:34.785Z,101889.53
2023-10-10T09:44:24.218Z,101874.34
2023-10-10T09:47:10.760Z,101878.75
2023-10-10T09:49:48.146Z,101882.84
2023-10-10T09:52:34.934Z,101877.88
2023-10-10T09:55:15.597Z,101876.81
2023-10-10T09:58:07.067Z,101879.78
2023-10-10T10:00:39.513Z,101878.22
2023-10-10T10:03:27.897Z,101873.69
2023-10-10T10:06:06.883Z,101863.88
2023-10-10T10:09:16.097Z,101866.06
2023-10-10T10:11:58.042Z,101878.84
2023-10-10T10:15:01.394Z,101872.66
2023-10-10T10:17:55.951Z,101879.47
2023-10-10T10:20:47.158Z,101857.34
2023-10-10T10:23:27.919Z,101869.44
2023-10-10T10:26:05.763Z,101850.66
2023-10-10T10:28:39.197Z,101858.56
2023-10-10T10:31:07.171Z,101861.56
2023-10-10T10:33:35.043Z,101820.91
2023-10-10T10:36:16.395Z,101852.81
2023-10-10T10:39:05.033Z,101855.28
2023-10-10T10:41:44.464Z,101842.13
2023-10-10T10:44:14.247Z,101828.88
2023-10-10T10:46:42.700Z,101808.88
2023-10-10T10:49:13.761Z,101823.38
2023-10-10T10:51:48.734Z,101808.78
2023-10-10T10:54:39.289Z,101810.25
2023-10-10T10:57:06.330Z,101796.84
2023-10-10T10:59:46.721Z,101786.28
2023-10-10T11:02:17.927Z,101784.28
2023-10-10T11:04:51.813Z,101781.41
2023-10-10T11:07:30.341Z,101780.72
2023-10-10T11:10:17.585Z,101772.28
2023-10-10T11:12:46.012Z,101764.84
2023-10-10T11:15:13.107Z,101759.91
2023-10-10T11:17:41.351Z,101745.69
2023-10-10T11:20:27.805Z,101750.53
2023-10-10T11:23:08.980Z,101757.03
2023-10-10T11:25:48.278Z,101749.25
2023-10-10T11:28:23.459Z,101747.84
2023-10-10T11:30:52.353Z,101755.59
2023-10-10T11:33:52.105Z,101751.59
2023-10-10T11:36:41.130Z,101736.53
2023-10-10T11:39:33.482Z,101757.00
2023-10-10T11:42:05.838Z,101768.41
2023-10-10T11:44:35.034Z,101762.88
2023-10-10T11:47:08.724Z,101754.41
2023-10-10T11:49:36.793Z,101747.91
2023-10-10T11:52:05.276Z,101756.47
2023-10-10T11:54:32.141Z,101752.16
2023-10-10T11:57:01.122Z,101750.59
2023-10-10T11:59:28.233Z,101743.91
2023-10-10T12:02:15.518Z,101747.03
2023-10-10T12:04:46.250Z,101734.47
2023-10-10T12:07:15.713Z,101748.34
2023-10-10T12:09:46.501Z,101736.63
2023-10-10T12:12:14.534Z,101734.13
2023-10-10T12:14:44.065Z,101710.97
2023-10-10T12:17:12.003Z,101708.50
2023-10-10T12:19:38.976Z,101725.16
2023-10-10T12:22:10.220Z,101725.72
2023-10-10T12:24:37.226Z,101717.38
2023-10-10T12:27:08.505Z,101717.31
2023-10-10T12:29:42.819Z,101716.47
2023-10-10T12:32:17.470Z,101702.00
2023-10-10T12:34:44.838Z,101705.47
2023-10-10T12:37:12.064Z,101709.31
2023-10-10T12:39:39.558Z,101688.22
2023-10-10T12:42:08.984Z,101705.16
2023-10-10T12:44:36.369Z,101698.22
2023-10-10T12:47:07.953Z,101717.13
2023-10-10T12:49:38.071Z,101710.03
2023-10-10T12:52:13.663Z,101711.75
2023-10-10T12:54:43.251Z,101718.78
2023-10-10T12:57:15.505Z,101695.13
2023-10-10T12:59:48.056Z,101717.50
2023-10-10T13:02:17.301Z,101706.84
2023-10-10T13:04:48.543Z,101714.59
2023-10-10T13:07:17.855Z,101714.78
2023-10-10T13:09:47.971Z,101698.97
2023-10-10T13:12:29.079Z,101712.41
2023-10-10T13:15:12.615Z,101689.88
2023-10-10T13:17:51.732Z,101669.53
2023-10-10T13:20:20.076Z,101666.19
2023-10-10T13:22:51.978Z,101666.25
2023-10-10T13:25:20.560Z,101678.31
2023-10-10T13:27:47.785Z,101660.06
2023-10-10T13:30:15.173Z,101654.78
2023-10-10T13:32:43.128Z,101651.13
2023-10-10T13:35:10.702Z,101632.16
2023-10-10T13:37:42.450Z,101628.06
2023-10-10T13:40:11.206Z,101621.59
2023-10-10T13:42:41.869Z,101620.50
2023-10-10T13:45:13.571Z,101634.72
2023-10-10T13:47:42.053Z,101626.56
2023-10-10T13:50:29.883Z,101627.19
2023-10-10T13:52:57.093Z,101642.38
2023-10-10T13:55:24.636Z,101628.63
2023-10-10T13:57:51.554Z,101619.38
2023-10-10T14:00:31.165Z,101630.22
2023-10-10T14:03:07.501Z,101626.63
2023-10-10T14:05:39.324Z,101617.88
2023-10-10T14:08:19.325Z,101629.63
2023-10-10T14:10:51.720Z,101622.41
2023-10-10T14:13:23.027Z,101620.00
2023-10-10T14:15:59.191Z,101601.25
2023-10-10T14:18:31.333Z,101604.84
2023-10-10T14:21:08.704Z,101592.72
2023-10-10T14:23:40.686Z,101597.09
2023-10-10T14:26:15.084Z,101604.09
2023-10-10T14:28:43.311Z,101611.03
2023-10-10T14:31:14.079Z,101598.16
2023-10-10T14:33:42.065Z,101594.72
2023-10-10T14:36:15.597Z,101604.44
2023-10-10T14:38:46.310Z,101597.53
2023-10-10T14:41:21.358Z,101584.16
2023-10-10T14:43:53.638Z,101586.44
2023-10-10T14:46:24.087Z,101578.41
2023-10-10T14:49:07.644Z,101585.78
2023-10-10T14:51:36.350Z,101560.84
2023-10-10T14:54:13.482Z,101500.09
2023-10-10T14:56:47.804Z,101551.91
2023-10-10T14:59:20.264Z,101549.53
2023-10-10T15:01:50.817Z,101548.16
2023-10-10T15:04:22.970Z,101546.78
2023-10-10T15:06:55.828Z,101551.06
2023-10-10T15:09:27.021Z,101539.22
2023-10-10T15:11:59.878Z,101555.97
2023-10-10T15:14:27.339Z,101550.25
2023-10-10T15:16:55.154Z,101521.84
2023-10-10T15:19:22.174Z,101543.84
2023-10-10T15:21:49.888Z,101545.56
2023-10-10T15:24:17.277Z,101550.50
2023-10-10T15:26:49.774Z,101542.22
2023-10-10T15:29:18.207Z,101541.66
2023-10-10T15:31:46.512Z,101529.81
2023-10-10T15:34:17.787Z,101534.81
2023-10-10T15:36:47.942Z,101549.31
2023-10-10T15:39:17.517Z,101547.22
2023-10-10T15:41:46.203Z,101546.84
2023-10-10T15:44:17.164Z,101543.03
2023-10-10T15:46:45.253Z,101560.34
2023-10-10T15:51:46.309Z,101533.81
2023-10-10T15:54:16.389Z,101542.09
2023-10-10T15:56:44.181Z,101521.34
2023-10-10T15:59:11.637Z,101540.47
2023-10-10T16:01:38.849Z,101530.53
2023-10-10T16:04:13.961Z,101549.66
2023-10-10T16:06:48.968Z,101543.09
2023-10-10T16:09:22.569Z,101542.88
2023-10-10T16:11:58.331Z,101546.28
2023-10-10T16:14:26.929Z,101543.69
2023-10-10T16:16:54.441Z,101541.72
2023-10-10T16:19:25.993Z,101547.38
2023-10-10T16:21:54.726Z,101549.63
2023-10-10T16:24:21.835Z,101551.28
2023-10-10T16:27:00.536Z,101541.03
2023-10-10T16:29:34.940Z,101543.00
2023-10-10T16:32:09.930Z,101546.59
2023-10-10T16:34:42.649Z,101544.34
2023-10-10T16:37:15.552Z,101541.84
2023-10-10T16:39:47.100Z,101527.28
2023-10-10T16:42:16.509Z,101530.47
2023-10-10T16:44:46.247Z,101514.63
2023-10-10T16:47:18.573Z,101521.94
2023-10-10T16:49:46.265Z,101503.25
2023-10-10T16:52:13.216Z,101501.69
2023-10-10T16:54:42.083Z,101510.28
2023-10-10T16:57:12.460Z,101512.44
2023-10-10T16:59:39.786Z,101494.56
2023-10-10T17:02:07.133Z,101492.34
2023-10-10T17:04:34.907Z,101495.41
2023-10-10T17:07:01.664Z,101491.97
2023-10-10T17:09:29.859Z,101483.88
2023-10-10T17:12:04.445Z,101475.69
2023-10-10T17:14:32.333Z,101486.13
2023-10-10T17:16:59.235Z,101494.22
2023-10-10T17:19:26.243Z,101481.88
2023-10-10T17:21:53.492Z,101487.31
2023-10-10T17:24:21.324Z,101463.22
2023-10-10T17:26:48.739Z,101420.97
2023-10-10T17:29:17.624Z,101466.75
2023-10-10T17:31:44.706Z,101479.31
2023-10-10T17:34:17.291Z,101510.78
2023-10-10T17:36:44.718Z,101505.41
2023-10-10T17:39:16.906Z,101496.56
2023-10-10T17:41:49.371Z,101485.06
2023-10-10T17:44:19.532Z,101477.41
2023-10-10T17:46:48.336Z,101485.06
2023-10-10T17:49:16.383Z,101491.66
2023-10-10T17:51:46.198Z,101476.47
2023-10-10T17:54:17.612Z,101474.97
2023-10-10T17:56:46.050Z,101485.41
2023-10-10T17:59:13.390Z,101476.03
2023-10-10T18:01:40.341Z,101475.31
2023-10-10T18:04:08.604Z,101487.31
2023-10-10T18:06:36.406Z,101468.53
2023-10-10T18:09:09.888Z,101480.53
2023-10-10T18:11:38.246Z,101474.66
2023-10-10T18:14:08.580Z,101458.22
2023-10-10T18:16:38.722Z,101457.41
2023-10-10T18:19:07.124Z,101465.09
2023-10-10T18:21:34.592Z,101445.59
2023-10-10T18:24:07.600Z,101462.44
2023-10-10T18:26:39.177Z,101465.72
2023-10-10T18:29:06.852Z,101336.56
2023-10-10T18:31:35.982Z,101458.34
2023-10-10T18:34:06.436Z,101457.03
2023-10-10T18:36:38.483Z,101420.09
2023-10-10T18:39:13.209Z,101443.31
2023-10-10T18:41:44.163Z,101447.31
2023-10-10T18:44:12.316Z,101453.78
2023-10-10T18:46:39.610Z,101442.56
2023-10-10T18:49:07.241Z,101345.97
2023-10-10T18:51:34.268Z,101431.72
2023-10-10T18:54:01.539Z,101442.28
2023-10-10T18:56:28.717Z,101438.50
2023-10-10T18:58:55.657Z,101430.91
2023-10-10T19:01:23.470Z,101425.06
2023-10-10T19:03:50.882Z,101431.28
2023-10-10T19:06:21.709Z,101430.34
2023-10-10T19:08:49.952Z,101434.69
2023-10-10T19:11:24.897Z,101378.78
2023-10-10T19:13:52.103Z,101419.66
2023-10-10T19:16:19.870Z,101409.56
2023-10-10T19:18:47.717Z,101380.97
2023-10-10T19:21:17.177Z,101415.19
2023-10-10T19:23:51.584Z,101409.34
2023-10-10T19:26:19.211Z,101388.00
2023-10-10T19:28:54.510Z,101402.22
2023-10-10T19:31:24.241Z,101367.19
2023-10-10T19:33:51.827Z,101411.00
2023-10-10T19:36:21.546Z,101396.56
2023-10-10T19:38:49.130Z,101369.84
2023-10-10T19:41:16.296Z,101394.00
2023-10-10T19:43:43.333Z,101398.22
2023-10-10T19:46:13.661Z,101398.09
2023-10-10T19:48:42.301Z,101385.91
2023-10-10T19:51:19.610Z,101392.81
2023-10-10T19:53:51.563Z,101387.91
2023-10-10T19:56:19.035Z,101361.81
2023-10-10T19:58:50.072Z,101381.03
2023-10-10T20:01:17.566Z,101383.03
2023-10-10T20:03:47.276Z,101387.84
2023-10-10T20:06:22.049Z,101379.25
2023-10-10T20:08:55.616Z,101366.34
2023-10-10T20:11:25.649Z,101375.41
2023-10-10T20:13:53.150Z,101364.50
2023-10-10T20:16:22.062Z,101369.53
2023-10-10T20:18:54.162Z,101365.53
2023-10-10T20:21:21.191Z,101353.22
2023-10-10T20:23:48.629Z,101365.22
2023-10-10T20:26:19.560Z,101361.47
2023-10-10T20:28:48.925Z,101359.81
2023-10-10T20:31:19.027Z,101356.78
2023-10-10T20:33:48.838Z,101361.34
2023-10-10T20:36:16.941Z,101344.09
2023-10-10T20:38:44.698Z,101356.38
2023-10-10T20:41:13.090Z,101316.78
2023-10-10T20:43:41.743Z,101350.66
2023-10-10T20:46:08.933Z,101347.63
2023-10-10T20:48:35.907Z,101343.31
2023-10-10T20:51:04.550Z,101330.50
2023-10-10T20:53:32.105Z,101345.53
2023-10-10T20:55:59.211Z,101320.91
2023-10-10T20:58:26.093Z,101333.69
2023-10-10T21:00:52.957Z,101321.97
2023-10-10T21:03:20.200Z,101338.38
2023-10-10T21:05:48.877Z,101330.41
2023-10-10T21:08:28.705Z,101302.16
2023-10-10T21:10:55.714Z,101320.56
2023-10-10T21:13:23.066Z,101317.28
2023-10-10T21:15:50.772Z,101320.91
2023-10-10T21:18:19.968Z,101326.44
2023-10-10T21:21:00.243Z,101322.91
2023-10-10T21:23:30.105Z,101322.69
2023-10-10T21:25:56.993Z,101302.75
2023-10-10T21:28:24.219Z,101316.94
2023-10-10T21:30:51.181Z,101312.00
2023-10-10T21:33:18.630Z,101313.19
2023-10-10T21:35:45.843Z,101291.97
2023-10-10T21:38:12.858Z,101309.09
2023-10-10T21:40:41.413Z,101305.47
2023-10-10T21:43:11.640Z,101287.88
2023-10-10T21:45:40.409Z,101251.34
2023-10-10T21:48:11.653Z,101279.69
2023-10-10T21:50:42.100Z,101291.84
2023-10-10T21:53:09.389Z,101280.03
2023-10-10T21:55:38.868Z,101252.13
2023-10-10T21:58:15.049Z,101255.78
2023-10-10T22:00:42.124Z,101269.13
2023-10-10T22:03:09.240Z,101262.81
2023-10-10T22:05:38.687Z,101263.03
2023-10-10T22:08:07.849Z,101240.56
2023-10-10T22:10:36.959Z,101251.09
2023-10-10T22:13:07.533Z,101259.41
2023-10-10T22:15:36.631Z,101253.09
2023-10-10T22:18:08.016Z,101241.84
2023-10-10T22:20:35.572Z,101251.69
2023-10-10T22:23:02.720Z,101222.97
2023-10-10T22:25:33.399Z,101232.81
2023-10-10T22:28:01.641Z,101237.75
2023-10-10T22:30:34.017Z,101230.94
2023-10-10T22:33:01.460Z,101230.94
2023-10-10T22:35:30.343Z,101220.41
2023-10-10T22:37:57.650Z,101219.47
2023-10-10T22:40:28.383Z,101217.94
2023-10-10T22:43:04.940Z,101214.19
2023-10-10T22:45:34.633Z,101158.06
2023-10-10T22:48:04.796Z,101200.09
2023-10-10T22:50:32.348Z,101198.25
2023-10-10T22:53:02.499Z,101193.56
2023-10-10T22:55:34.840Z,101191.44
2023-10-10T22:58:07.960Z,101189.81
2023-10-10T23:00:40.039Z,101169.91
2023-10-10T23:03:12.336Z,101191.34
2023-10-10T23:05:40.944Z,101190.44
2023-10-10T23:08:08.237Z,101157.00
2023-10-10T23:10:35.859Z,101185.47
2023-10-10T23:13:03.583Z,101181.59
2023-10-10T23:15:30.800Z,101174.91
2023-10-10T23:18:00.582Z,101188.50
2023-10-10T23:20:28.948Z,101166.63
2023-10-10T23:23:04.272Z,101177.06
2023-10-10T23:25:32.887Z,101155.97
2023-10-10T23:28:00.342Z,101170.72
2023-10-10T23:30:28.977Z,101159.25
2023-10-10T23:33:20.670Z,101159.69
2023-10-10T23:35:50.095Z,101165.00
2023-10-10T23:38:20.938Z,101157.38
2023-10-10T23:40:47.996Z,101155.72
2023-10-10T23:43:20.479Z,101153.97
2023-10-10T23:45:55.975Z,101148.72
2023-10-10T23:48:30.592Z,101151.28
2023-10-10T23:50:58.313Z,101150.34
2023-10-10T23:53:25.832Z,101140.88
2023-10-10T23:55:56.529Z,101141.09
2023-10-10T23:58:26.811Z,101146.94
